Time;durP1;ratioP1;P1;durP2;ratioP2;P2;SDS_P1;SDS_P2;PMS_P1;PMS_P2;Temp;Humidity;BMP_temperature;BMP_pressure;BME280_temperature;BME280_humidity;BME280_pressure;Samples;Min_cycle;Max_cycle;Signal;HPM_P1;HPM_P2
2021/10/26 00:00:37;;;;;;;9.27;6.00;;;;;;;0.86;100.00;94129.13;4975996;28;20046;-77
2021/10/26 00:03:04;;;;;;;10.45;5.90;;;;;;;0.89;100.00;94132.22;4975913;28;20149;-77
2021/10/26 00:05:31;;;;;;;10.05;6.97;;;;;;;0.86;100.00;94129.94;4975869;28;20047;-77
2021/10/26 00:07:58;;;;;;;10.65;6.97;;;;;;;0.80;100.00;94121.13;4976223;28;20051;-77
2021/10/26 00:10:25;;;;;;;9.77;6.32;;;;;;;0.86;100.00;94121.53;4976154;28;20050;-77
2021/10/26 00:12:52;;;;;;;11.20;6.53;;;;;;;0.90;100.00;94126.25;4975998;28;20772;-77
2021/10/26 00:15:20;;;;;;;11.60;7.00;;;;;;;0.89;100.00;94116.25;4975904;28;20042;-77
2021/10/26 00:17:47;;;;;;;11.60;6.78;;;;;;;0.77;100.00;94093.56;4974362;28;21202;-77
2021/10/26 00:20:14;;;;;;;9.13;6.28;;;;;;;0.90;100.00;94113.59;4975963;28;20074;-77
2021/10/26 00:22:41;;;;;;;8.82;5.93;;;;;;;0.86;100.00;94116.50;4975248;28;20039;-77
2021/10/26 00:25:08;;;;;;;8.75;6.50;;;;;;;0.85;100.00;94110.66;4976074;28;20054;-77
2021/10/26 00:27:35;;;;;;;10.73;7.00;;;;;;;0.80;100.00;94108.47;4976070;28;20109;-77
2021/10/26 00:30:02;;;;;;;11.75;6.68;;;;;;;0.82;100.00;94117.69;4976154;28;20054;-77
2021/10/26 00:32:30;;;;;;;9.55;6.07;;;;;;;0.70;100.00;94111.91;4975346;28;20055;-77
2021/10/26 00:34:57;;;;;;;9.13;6.13;;;;;;;0.59;100.00;94106.00;4975620;28;20054;-77
2021/10/26 00:37:24;;;;;;;9.23;6.28;;;;;;;0.60;100.00;94110.13;4975642;28;20055;-77
2021/10/26 00:39:51;;;;;;;11.13;6.70;;;;;;;0.52;100.00;94117.56;4975886;28;20051;-77
2021/10/26 00:42:18;;;;;;;10.45;5.60;;;;;;;0.34;100.00;94094.56;4975806;28;20070;-77
2021/10/26 00:44:45;;;;;;;8.95;6.35;;;;;;;0.39;100.00;94100.88;4975524;28;20452;-77
2021/10/26 00:47:12;;;;;;;12.15;6.05;;;;;;;0.35;100.00;94101.22;4975920;28;20054;-77
2021/10/26 00:49:40;;;;;;;11.98;7.22;;;;;;;0.32;100.00;94097.22;4975376;28;20043;-77
2021/10/26 00:52:07;;;;;;;12.50;7.78;;;;;;;0.38;100.00;94096.72;4975169;28;20050;-77
2021/10/26 00:54:34;;;;;;;14.05;8.43;;;;;;;0.31;100.00;94085.50;4975097;28;20105;-77
2021/10/26 00:57:01;;;;;;;12.20;8.88;;;;;;;0.28;100.00;94074.84;4975875;28;20064;-77
2021/10/26 00:59:28;;;;;;;15.18;8.63;;;;;;;0.21;100.00;94075.34;4976916;28;20513;-77
2021/10/26 01:01:55;;;;;;;13.73;8.82;;;;;;;0.27;100.00;94089.19;4976918;28;20053;-77
2021/10/26 01:04:22;;;;;;;15.13;8.45;;;;;;;0.22;100.00;94087.06;4975475;28;20514;-77
2021/10/26 01:06:51;;;;;;;14.10;8.10;;;;;;;0.28;100.00;94082.44;4975678;28;20051;-77
2021/10/26 01:09:18;;;;;;;13.00;7.60;;;;;;;0.32;100.00;94082.06;4976135;28;20092;-77
2021/10/26 01:11:45;;;;;;;15.55;8.43;;;;;;;0.30;100.00;94071.28;4979296;28;20050;-78
2021/10/26 01:14:13;;;;;;;12.82;7.70;;;;;;;0.37;100.00;94082.47;4979082;28;20228;-77
2021/10/26 01:16:40;;;;;;;14.30;7.90;;;;;;;0.31;100.00;94072.88;4978772;28;20496;-78
2021/10/26 01:19:07;;;;;;;11.25;7.22;;;;;;;0.35;100.00;94078.47;4978642;28;20514;-78
2021/10/26 01:21:35;;;;;;;11.38;7.57;;;;;;;0.25;100.00;94068.31;4978378;28;20693;-78
2021/10/26 01:24:02;;;;;;;10.27;7.15;;;;;;;0.34;100.00;94087.78;4978617;28;20051;-78
2021/10/26 01:26:32;;;;;;;18.20;8.75;;;;;;;0.31;100.00;94087.22;4978754;28;20089;-78
2021/10/26 01:28:59;;;;;;;12.77;7.90;;;;;;;0.35;100.00;94083.53;4978622;28;20061;-78
2021/10/26 01:31:26;;;;;;;12.25;8.10;;;;;;;-0.03;100.00;94033.47;4978514;28;20054;-78
2021/10/26 01:33:53;;;;;;;15.52;9.25;;;;;;;0.19;100.00;94077.19;4978169;28;20051;-78
2021/10/26 01:36:22;;;;;;;14.35;9.35;;;;;;;0.17;100.00;94079.03;4978792;28;20051;-78
2021/10/26 01:38:50;;;;;;;13.38;9.07;;;;;;;0.17;100.00;94075.72;4978726;28;20057;-78
2021/10/26 01:41:17;;;;;;;13.75;8.40;;;;;;;0.20;100.00;94070.41;4978250;28;20057;-78
2021/10/26 01:43:44;;;;;;;17.67;10.05;;;;;;;0.16;100.00;94074.09;4978649;28;20054;-78
2021/10/26 01:46:11;;;;;;;19.23;10.50;;;;;;;0.12;100.00;94074.38;4978305;28;20042;-78
2021/10/26 01:48:38;;;;;;;20.52;11.18;;;;;;;0.14;100.00;94076.78;4978231;28;20055;-77
2021/10/26 01:51:05;;;;;;;22.55;10.82;;;;;;;0.09;100.00;94078.88;4978334;28;20054;-78
2021/10/26 01:53:32;;;;;;;24.40;11.40;;;;;;;0.03;100.00;94070.06;4978401;28;20050;-78
2021/10/26 01:56:00;;;;;;;21.05;9.85;;;;;;;-0.09;100.00;94061.72;4978042;28;20113;-78
2021/10/26 01:58:27;;;;;;;15.13;8.18;;;;;;;-0.20;100.00;94047.44;4978032;28;20513;-77
2021/10/26 02:00:54;;;;;;;14.60;7.82;;;;;;;-0.12;100.00;94062.00;4978022;28;20057;-78
2021/10/26 02:03:20;;;;;;;10.57;6.57;;;;;;;-0.14;100.00;94063.81;4977917;28;20047;-78
2021/10/26 02:05:48;;;;;;;10.73;6.57;;;;;;;-0.14;100.00;94063.81;4978166;28;20047;-78
2021/10/26 02:08:14;;;;;;;12.02;7.22;;;;;;;-0.10;100.00;94054.28;4977774;28;20053;-77
2021/10/26 02:10:41;;;;;;;10.50;7.40;;;;;;;-0.16;100.00;94053.84;4978240;28;20422;-78
2021/10/26 02:13:09;;;;;;;39.17;23.30;;;;;;;-0.18;100.00;94044.81;4977993;28;20462;-77
2021/10/26 02:15:36;;;;;;;33.97;21.70;;;;;;;-0.16;100.00;94048.00;4977669;28;20054;-78
2021/10/26 02:18:03;;;;;;;14.38;9.27;;;;;;;-0.10;100.00;94042.44;4977629;28;20502;-77
2021/10/26 02:20:30;;;;;;;11.90;7.78;;;;;;;-0.12;100.00;94040.97;4977830;28;20406;-77
2021/10/26 02:22:58;;;;;;;10.55;6.95;;;;;;;-0.19;100.00;94043.22;4977665;28;20057;-77
2021/10/26 02:25:25;;;;;;;9.23;6.72;;;;;;;-0.11;100.00;94052.66;4978175;28;20387;-77
2021/10/26 02:27:51;;;;;;;9.40;6.95;;;;;;;-0.05;100.00;94058.03;4977490;28;21064;-77
2021/10/26 02:30:20;;;;;;;13.65;6.80;;;;;;;-0.11;100.00;94053.47;4977766;28;20050;-77
2021/10/26 02:32:46;;;;;;;10.82;7.20;;;;;;;-0.30;100.00;94036.47;4977792;28;20453;-77
2021/10/26 02:35:13;;;;;;;10.55;7.05;;;;;;;-0.24;100.00;94042.78;4977208;28;20054;-77
2021/10/26 02:37:40;;;;;;;17.65;10.35;;;;;;;-0.31;100.00;94045.78;4977952;28;20114;-77
2021/10/26 02:40:08;;;;;;;13.90;9.32;;;;;;;-0.36;100.00;94042.00;4977142;28;20054;-77
2021/10/26 02:42:36;;;;;;;12.88;8.10;;;;;;;-0.37;100.00;94041.19;4975537;28;20426;-77
2021/10/26 02:45:04;;;;;;;14.18;7.72;;;;;;;-0.42;100.00;94034.00;4977132;28;20083;-77
2021/10/26 02:47:32;;;;;;;12.20;7.57;;;;;;;-0.37;100.00;94048.00;4976443;28;20107;-77
2021/10/26 02:49:59;;;;;;;12.30;7.30;;;;;;;-0.48;100.00;94026.09;4976845;28;20061;-77
2021/10/26 02:52:26;;;;;;;11.70;7.30;;;;;;;-0.70;100.00;93993.28;4977224;28;20121;-77
2021/10/26 02:54:52;;;;;;;26.60;14.35;;;;;;;-0.33;100.00;94045.09;4975915;28;20100;-77
2021/10/26 02:57:19;;;;;;;31.52;18.33;;;;;;;-0.40;100.00;94036.41;4976594;28;20062;-77
2021/10/26 02:59:46;;;;;;;32.50;18.17;;;;;;;-0.35;100.00;94036.84;4976442;28;20097;-77
2021/10/26 03:02:13;;;;;;;33.00;17.05;;;;;;;-0.33;100.00;94035.00;4976333;28;20141;-77
2021/10/26 03:04:41;;;;;;;31.10;16.98;;;;;;;-0.44;100.00;94025.75;4977235;28;20061;-77
2021/10/26 03:07:08;;;;;;;27.52;15.73;;;;;;;-0.43;100.00;94029.06;4976729;28;20502;-77
2021/10/26 03:09:35;;;;;;;19.95;11.05;;;;;;;-0.39;100.00;94030.44;4976304;28;20055;-77
2021/10/26 03:12:01;;;;;;;14.20;8.85;;;;;;;-0.47;100.00;94020.94;4976979;28;20053;-77
2021/10/26 03:14:28;;;;;;;12.90;7.55;;;;;;;-0.64;100.00;93983.63;4976848;28;20058;-77
2021/10/26 03:16:55;;;;;;;10.65;6.70;;;;;;;-0.49;100.00;94017.75;4976492;28;20054;-77
2021/10/26 03:19:22;;;;;;;14.32;8.25;;;;;;;-0.52;100.00;94020.50;4976268;28;20050;-77
2021/10/26 03:21:50;;;;;;;14.32;8.82;;;;;;;-0.52;100.00;94033.13;4976379;28;20047;-77
2021/10/26 03:24:17;;;;;;;19.60;9.80;;;;;;;-0.57;100.00;94020.06;4976974;28;20054;-77
2021/10/26 03:26:44;;;;;;;60.47;24.60;;;;;;;-0.63;100.00;94015.50;4976393;28;20054;-77
2021/10/26 03:29:11;;;;;;;70.75;29.55;;;;;;;-0.72;100.00;94011.97;4976552;28;20053;-77
2021/10/26 03:31:37;;;;;;;64.55;26.20;;;;;;;-0.69;100.00;94009.22;4971801;28;20050;-78
2021/10/26 03:34:04;;;;;;;77.03;30.05;;;;;;;-0.61;100.00;94019.50;4974318;28;20540;-78
2021/10/26 03:36:33;;;;;;;82.43;30.58;;;;;;;-0.64;100.00;94019.78;4976256;28;20506;-78
2021/10/26 03:39:01;;;;;;;57.15;24.27;;;;;;;-0.66;100.00;94015.75;4976376;28;20528;-78
2021/10/26 03:41:28;;;;;;;38.75;17.10;;;;;;;-0.65;100.00;94018.16;4976210;28;20395;-78
2021/10/26 03:43:54;;;;;;;25.77;13.52;;;;;;;-0.68;100.00;94011.63;4977354;28;20047;-78
2021/10/26 03:46:21;;;;;;;29.08;14.32;;;;;;;-0.66;100.00;94014.03;4978173;28;20046;-78
2021/10/26 03:48:48;;;;;;;24.88;13.27;;;;;;;-0.63;100.00;94013.78;4976339;28;20054;-77
2021/10/26 03:51:15;;;;;;;22.95;13.45;;;;;;;-0.58;100.00;94010.91;4975469;28;20051;-78
2021/10/26 03:53:42;;;;;;;21.75;11.98;;;;;;;-0.59;100.00;94007.59;4976066;28;20421;-78
2021/10/26 03:56:10;;;;;;;33.05;15.18;;;;;;;-0.56;100.00;94006.53;4976066;28;20451;-78
2021/10/26 03:58:38;;;;;;;47.90;18.25;;;;;;;-0.54;100.00;94012.25;4983946;28;20502;-78
2021/10/26 04:01:05;;;;;;;71.85;24.77;;;;;;;-0.57;100.00;94005.75;4988655;28;20053;-78
2021/10/26 04:03:32;;;;;;;76.88;27.58;;;;;;;-0.66;100.00;94005.66;4989664;28;20065;-78
2021/10/26 04:06:02;;;;;;;53.47;20.95;;;;;;;-0.69;100.00;94004.19;4989261;28;20053;-77
2021/10/26 04:08:33;;;;;;;33.75;13.45;;;;;;;-0.75;100.00;93994.59;4989948;28;20057;-77
2021/10/26 04:11:03;;;;;;;27.10;12.48;;;;;;;-0.74;100.00;93996.97;4989753;28;20494;-78
2021/10/26 04:13:31;;;;;;;23.67;9.80;;;;;;;-0.74;100.00;93999.50;4989935;28;20046;-77
2021/10/26 04:15:58;;;;;;;18.02;9.60;;;;;;;-0.73;100.00;94002.81;4989824;28;20395;-78
2021/10/26 04:18:25;;;;;;;13.80;7.18;;;;;;;-0.77;100.00;93996.41;4989594;28;20101;-78
2021/10/26 04:20:53;;;;;;;11.82;7.00;;;;;;;-0.84;100.00;94003.66;4989797;28;20054;-78
2021/10/26 04:23:20;;;;;;;11.60;7.57;;;;;;;-0.83;100.00;94008.56;4989851;28;20046;-78
2021/10/26 04:25:47;;;;;;;12.05;7.10;;;;;;;-0.92;100.00;94006.78;4989573;28;20093;-78
2021/10/26 04:28:14;;;;;;;16.05;9.85;;;;;;;-1.00;100.00;94007.38;4989647;28;20100;-78
2021/10/26 04:30:44;;;;;;;19.08;11.68;;;;;;;-1.02;100.00;94010.94;4989437;28;20061;-78
2021/10/26 04:33:13;;;;;;;15.85;10.90;;;;;;;-1.04;100.00;94010.25;4989801;28;20049;-77
2021/10/26 04:35:39;;;;;;;13.15;7.95;;;;;;;-1.13;100.00;94009.22;4989429;28;20054;-78
2021/10/26 04:38:07;;;;;;;12.05;7.30;;;;;;;-1.03;100.00;94011.88;4989542;28;20521;-78
2021/10/26 04:40:34;;;;;;;10.68;7.75;;;;;;;-0.99;100.00;94016.53;4989394;28;20596;-78
2021/10/26 04:43:02;;;;;;;12.25;7.35;;;;;;;-1.01;100.00;94020.09;4989864;28;20057;-78
2021/10/26 04:45:29;;;;;;;11.27;7.88;;;;;;;-1.08;100.00;94012.19;4993189;28;20057;-78
2021/10/26 04:47:57;;;;;;;12.18;7.97;;;;;;;-1.07;100.00;94016.31;4993100;28;20064;-78
2021/10/26 04:50:24;;;;;;;12.57;8.57;;;;;;;-1.16;100.00;94001.91;4993138;28;20046;-78
2021/10/26 04:52:51;;;;;;;11.57;8.00;;;;;;;-1.00;100.00;94022.50;4993438;28;20054;-78
2021/10/26 04:55:19;;;;;;;17.00;9.90;;;;;;;-1.05;100.00;94018.72;4993024;28;20057;-78
2021/10/26 04:57:46;;;;;;;16.27;11.57;;;;;;;-1.05;100.00;94017.03;4993184;28;20100;-78
2021/10/26 05:00:14;;;;;;;18.25;12.48;;;;;;;-1.04;100.00;94025.38;4992772;28;20094;-78
2021/10/26 05:02:41;;;;;;;23.67;12.02;;;;;;;-1.11;100.00;94014.97;4992893;28;20513;-79
2021/10/26 05:05:10;;;;;;;29.30;16.35;;;;;;;-1.04;100.00;94018.63;4993119;28;20057;-77
2021/10/26 05:07:37;;;;;;;28.55;16.02;;;;;;;-1.01;100.00;94020.09;4993044;28;20054;-77
2021/10/26 05:10:05;;;;;;;35.50;19.40;;;;;;;-1.02;100.00;94019.28;4992747;28;20046;-78
2021/10/26 05:12:32;;;;;;;47.28;26.75;;;;;;;-1.19;100.00;94010.53;4992839;28;20836;-78
2021/10/26 05:14:58;;;;;;;41.45;25.55;;;;;;;-1.14;100.00;94013.50;4992966;28;20050;-78
2021/10/26 05:17:26;;;;;;;44.08;24.40;;;;;;;-1.11;100.00;94020.03;4992776;28;20056;-78
2021/10/26 05:19:54;;;;;;;41.08;23.00;;;;;;;-1.03;100.00;94027.78;4992760;28;20062;-78
2021/10/26 05:22:24;;;;;;;44.53;25.58;;;;;;;-0.91;100.00;94028.56;4992967;28;20053;-78
2021/10/26 05:24:51;;;;;;;44.20;23.52;;;;;;;-0.90;100.00;94024.31;4992786;28;20058;-78
2021/10/26 05:27:19;;;;;;;39.15;22.10;;;;;;;-0.90;100.00;94026.81;4992764;28;20112;-78
2021/10/26 05:29:46;;;;;;;40.25;23.77;;;;;;;-0.87;100.00;94039.22;4992656;28;20461;-79
2021/10/26 05:32:14;;;;;;;47.35;26.42;;;;;;;-0.86;100.00;94043.34;4968769;28;20101;-78
2021/10/26 05:34:41;;;;;;;56.40;30.85;;;;;;;-0.84;100.00;94042.28;4971528;28;20053;-78
2021/10/26 05:37:10;;;;;;;58.47;34.03;;;;;;;-0.76;100.00;94038.38;4973033;28;20051;-78
2021/10/26 05:39:39;;;;;;;77.40;43.05;;;;;;;-0.70;100.00;94043.75;4973181;28;20057;-79
2021/10/26 05:42:06;;;;;;;80.65;45.00;;;;;;;-0.67;100.00;94045.22;4972994;28;20046;-79
2021/10/26 05:44:33;;;;;;;82.38;46.45;;;;;;;-0.61;100.00;94041.44;4972844;28;20477;-78
2021/10/26 05:47:00;;;;;;;65.85;38.83;;;;;;;-0.56;100.00;94044.38;4972713;28;20055;-78
2021/10/26 05:49:27;;;;;;;70.80;39.58;;;;;;;-0.64;100.00;94024.00;4972609;28;20050;-79
2021/10/26 05:51:53;;;;;;;74.38;42.05;;;;;;;-0.49;100.00;94037.13;4972641;28;20054;-79
2021/10/26 05:54:20;;;;;;;92.47;50.22;;;;;;;-0.42;100.00;94045.81;4972139;28;20059;-78
2021/10/26 05:56:48;;;;;;;106.18;56.17;;;;;;;-0.45;100.00;94034.25;4971936;28;20058;-80
2021/10/26 05:59:15;;;;;;;77.70;41.22;;;;;;;-0.32;100.00;94051.75;4972543;28;20422;-79
2021/10/26 06:01:42;;;;;;;56.20;31.10;;;;;;;-0.24;100.00;94050.34;4972301;28;20043;-79
2021/10/26 06:04:09;;;;;;;41.47;24.92;;;;;;;-0.18;100.00;94053.16;4972221;28;20054;-79
2021/10/26 06:06:36;;;;;;;31.27;20.73;;;;;;;-0.34;100.00;94009.88;4972382;28;20046;-78
2021/10/26 06:09:03;;;;;;;37.05;21.02;;;;;;;-0.05;100.00;94039.56;4972192;28;20400;-78
2021/10/26 06:11:30;;;;;;;36.22;20.38;;;;;;;0.11;100.00;94050.03;4972708;28;20418;-78
2021/10/26 06:14:03;;;;;;;33.83;19.17;;;;;;;0.20;100.00;94050.19;4971977;28;20050;-78
2021/10/26 06:16:31;;;;;;;30.65;18.10;;;;;;;0.25;100.00;94050.63;4972029;28;20055;-77
2021/10/26 06:18:58;;;;;;;26.23;16.15;;;;;;;0.24;100.00;94037.19;4972380;28;20392;-77
2021/10/26 06:21:25;;;;;;;30.25;17.42;;;;;;;0.41;100.00;94049.38;4971952;28;20047;-77
2021/10/26 06:23:53;;;;;;;30.88;18.77;;;;;;;0.55;100.00;94054.09;4971826;28;20047;-77
2021/10/26 06:26:20;;;;;;;73.60;43.67;;;;;;;0.60;100.00;94054.50;4971909;28;20090;-77
2021/10/26 06:28:47;;;;;;;99.07;65.30;;;;;;;0.76;100.00;94059.09;4971910;28;20042;-77
2021/10/26 06:31:15;;;;;;;63.13;42.05;;;;;;;0.76;100.00;94040.59;4971471;28;20138;-77
2021/10/26 06:33:42;;;;;;;46.30;29.63;;;;;;;1.01;100.00;94061.28;4972421;28;20054;-77
2021/10/26 06:36:09;;;;;;;35.95;25.52;;;;;;;1.08;100.00;94053.97;4971603;28;20054;-78
2021/10/26 06:38:36;;;;;;;33.53;20.65;;;;;;;1.18;100.00;94045.47;4971901;28;20047;-78
2021/10/26 06:41:04;;;;;;;33.10;20.70;;;;;;;1.15;100.00;94028.03;4971942;28;20051;-78
2021/10/26 06:43:32;;;;;;;31.58;19.35;;;;;;;1.45;100.00;94058.44;4971759;28;20592;-77
2021/10/26 06:45:59;;;;;;;38.13;20.00;;;;;;;1.50;100.00;94048.72;4971806;28;20051;-77
2021/10/26 06:48:27;;;;;;;35.45;20.13;;;;;;;1.64;100.00;94060.16;4971887;28;20066;-78
2021/10/26 06:50:54;;;;;;;32.45;19.77;;;;;;;1.61;100.00;94040.16;4971511;28;20057;-77
2021/10/26 06:53:22;;;;;;;32.10;20.05;;;;;;;1.70;100.00;94044.44;4971222;28;20086;-78
2021/10/26 06:55:49;;;;;;;35.95;22.42;;;;;;;1.76;100.00;94052.44;4970971;28;20063;-78
2021/10/26 06:58:17;;;;;;;30.27;20.08;;;;;;;1.66;100.00;94032.97;4971260;28;20101;-78
2021/10/26 07:00:44;;;;;;;33.78;20.45;;;;;;;1.70;100.00;94046.97;4971225;28;20086;-78
2021/10/26 07:03:11;;;;;;;31.20;18.92;;;;;;;1.81;100.00;94042.69;4971376;28;20085;-78
2021/10/26 07:05:39;;;;;;;26.98;16.77;;;;;;;1.88;100.00;94041.22;4971315;28;20278;-79
2021/10/26 07:08:07;;;;;;;24.77;16.30;;;;;;;1.75;100.00;94020.44;4970290;28;20050;-79
2021/10/26 07:10:34;;;;;;;25.65;16.10;;;;;;;1.68;100.00;94021.00;4971202;28;20125;-80
2021/10/26 07:13:03;;;;;;;29.33;17.60;;;;;;;1.93;100.00;94040.81;4971285;28;20054;-80
2021/10/26 07:15:32;;;;;;;26.52;17.35;;;;;;;1.99;100.00;94032.69;4970872;28;20498;-81
2021/10/26 07:17:59;;;;;;;29.10;17.42;;;;;;;2.02;100.00;94034.94;4971263;28;20053;-82
2021/10/26 07:20:26;;;;;;;23.13;16.10;;;;;;;1.96;100.00;94018.56;4970707;28;20066;-81
2021/10/26 07:22:55;;;;;;;26.67;16.48;;;;;;;2.15;100.00;94021.97;4970860;28;20055;-81
2021/10/26 07:25:23;;;;;;;30.42;20.38;;;;;;;2.30;100.00;94024.06;4970931;28;20054;-81
2021/10/26 07:27:57;;;;;;;29.88;18.50;;;;;;;2.41;100.00;94026.44;4970914;28;20113;-81
2021/10/26 07:30:27;;;;;;;27.55;18.55;;;;;;;2.57;100.00;94030.91;4970848;28;20481;-81
2021/10/26 07:32:55;;;;;;;28.45;17.60;;;;;;;2.71;100.00;94023.75;4970761;28;20052;-81
2021/10/26 07:35:22;;;;;;;23.20;16.35;;;;;;;2.70;100.00;94006.94;4970812;28;20086;-81
2021/10/26 07:37:49;;;;;;;17.58;12.05;;;;;;;2.81;100.00;94027.06;4970512;28;20078;-81
2021/10/26 07:40:17;;;;;;;24.30;15.23;;;;;;;2.79;100.00;94001.81;4970304;28;20059;-81
2021/10/26 07:42:44;;;;;;;22.58;14.93;;;;;;;3.06;100.00;94010.34;4970942;28;20047;-81
2021/10/26 07:45:12;;;;;;;19.70;13.88;;;;;;;3.15;100.00;93998.53;4970818;28;20054;-81
2021/10/26 07:47:39;;;;;;;20.58;13.93;;;;;;;3.19;100.00;93994.78;4970323;28;20483;-81
2021/10/26 07:50:08;;;;;;;19.92;13.20;;;;;;;3.39;100.00;93996.38;4970512;28;20057;-80
2021/10/26 07:52:35;;;;;;;18.50;12.63;;;;;;;3.55;100.00;93993.16;4970450;28;20050;-81
2021/10/26 07:55:02;;;;;;;12.38;8.52;;;;;;;3.65;98.56;93998.19;4970158;28;20055;-81
2021/10/26 07:57:31;;;;;;;20.25;12.80;;;;;;;3.80;100.00;93993.34;4970565;28;20121;-81
2021/10/26 07:59:58;;;;;;;24.35;13.43;;;;;;;3.95;99.30;93986.78;4970626;28;20077;-81
2021/10/26 08:02:26;;;;;;;16.92;10.13;;;;;;;4.09;97.40;93989.72;4970268;28;20065;-82
2021/10/26 08:04:55;;;;;;;18.42;12.90;;;;;;;4.17;97.83;93988.97;4970074;28;20110;-81
2021/10/26 08:07:22;;;;;;;18.90;12.70;;;;;;;4.27;99.77;93972.66;4970163;28;20097;-80
2021/10/26 08:09:51;;;;;;;21.20;12.45;;;;;;;4.45;95.35;93991.34;4970779;28;20059;-81
2021/10/26 08:12:18;;;;;;;19.20;11.55;;;;;;;4.57;96.84;93986.78;4970335;28;20051;-81
2021/10/26 08:14:47;;;;;;;16.02;9.23;;;;;;;4.73;96.34;93991.13;4970103;28;20395;-80
2021/10/26 08:17:16;;;;;;;18.30;12.02;;;;;;;4.89;94.80;93972.56;4969980;28;20046;-80
2021/10/26 08:19:44;;;;;;;22.23;13.07;;;;;;;5.07;91.99;93991.06;4973262;28;20094;-80
2021/10/26 08:22:16;;;;;;;15.13;10.48;;;;;;;5.15;92.02;93986.94;4973989;28;20529;-80
2021/10/26 08:24:44;;;;;;;15.45;10.63;;;;;;;5.15;92.68;93964.03;4973952;28;20055;-80
2021/10/26 08:27:14;;;;;;;13.73;9.45;;;;;;;5.44;92.09;93980.59;4974234;28;20050;-80
2021/10/26 08:29:47;;;;;;;14.70;9.40;;;;;;;5.55;91.38;93971.88;4973819;28;20133;-81
2021/10/26 08:35:18;;;;;;;12.18;7.72;;;;;;;5.59;88.22;93939.97;4913814;29;20621;-81
2021/10/26 08:37:47;;;;;;;12.02;7.32;;;;;;;5.85;87.71;93979.81;4962400;28;20054;-80
2021/10/26 08:40:15;;;;;;;13.40;8.02;;;;;;;6.01;86.89;93989.97;4973726;28;20054;-80
2021/10/26 08:42:43;;;;;;;10.77;7.60;;;;;;;6.22;87.59;93977.69;4973876;28;20050;-80
2021/10/26 08:45:10;;;;;;;14.65;8.82;;;;;;;6.26;87.53;93973.88;4973977;28;20137;-80
2021/10/26 08:47:41;;;;;;;12.75;8.10;;;;;;;6.45;87.44;93980.34;4973819;28;20134;-79
2021/10/26 08:50:09;;;;;;;12.20;8.73;;;;;;;6.36;83.39;93963.47;4973571;28;20395;-80
2021/10/26 08:52:36;;;;;;;14.30;8.38;;;;;;;6.55;84.83;93967.38;4973931;28;20087;-79
2021/10/26 08:55:06;;;;;;;15.25;8.15;;;;;;;6.88;84.20;93976.66;4974067;28;20073;-79
2021/10/26 08:57:34;;;;;;;14.00;9.48;;;;;;;6.85;84.77;93946.34;4973023;28;20102;-79
2021/10/26 09:00:05;;;;;;;9.05;7.28;;;;;;;6.85;81.23;93977.00;4973617;28;20051;-79
2021/10/26 09:02:34;;;;;;;10.38;6.50;;;;;;;6.76;79.60;93953.25;4973331;28;20591;-79
2021/10/26 09:05:08;;;;;;;14.63;6.05;;;;;;;6.91;78.99;93971.22;4973613;28;20391;-79
2021/10/26 09:07:36;;;;;;;11.27;6.90;;;;;;;7.06;82.38;93944.00;4973189;28;20051;-79
2021/10/26 09:10:15;;;;;;;12.55;8.80;;;;;;;7.32;81.14;93963.28;4973162;28;20106;-80
2021/10/26 09:18:24;;;;;;;11.07;7.60;;;;;;;7.74;76.75;93955.31;4972494;28;20066;-79
2021/10/26 09:20:52;;;;;;;14.38;9.07;;;;;;;7.87;80.86;93957.28;4973363;28;20055;-79
2021/10/26 09:23:26;;;;;;;19.08;9.48;;;;;;;8.16;80.28;93948.81;4973077;28;20054;-79
2021/10/26 09:25:58;;;;;;;12.75;8.20;;;;;;;8.33;77.97;93943.53;4972809;28;20625;-79
2021/10/26 09:28:26;;;;;;;12.98;7.53;;;;;;;8.36;76.78;93948.31;4972842;28;20043;-79
2021/10/26 09:31:05;;;;;;;13.82;7.47;;;;;;;8.19;74.14;93946.91;4971982;28;20058;-79
2021/10/26 09:33:34;;;;;;;17.17;7.60;;;;;;;8.38;74.21;93932.78;4972762;28;20124;-80
2021/10/26 09:36:25;;;;;;;11.65;7.13;;;;;;;8.54;72.88;93930.06;4972849;28;20418;-79
2021/10/26 09:39:18;;;;;;;9.93;6.03;;;;;;;8.48;71.50;93914.56;4972912;28;20391;-80
2021/10/26 09:42:06;;;;;;;10.73;6.50;;;;;;;8.43;72.59;93927.94;4972947;28;20047;-80
2021/10/26 09:44:37;;;;;;;11.30;6.80;;;;;;;8.66;73.23;93904.00;4972823;28;20512;-80
2021/10/26 09:47:06;;;;;;;13.80;7.28;;;;;;;8.95;73.98;93910.78;4972719;28;20434;-80
2021/10/26 09:49:36;;;;;;;12.85;7.18;;;;;;;9.28;76.02;93904.41;4972560;28;20147;-80
2021/10/26 09:52:19;;;;;;;13.73;8.32;;;;;;;9.58;75.30;93891.41;4972754;28;20055;-80
2021/10/26 09:54:49;;;;;;;12.23;7.95;;;;;;;9.88;75.27;93886.09;4972543;28;20395;-80
2021/10/26 09:57:18;;;;;;;11.57;7.93;;;;;;;10.13;75.33;93883.06;4972390;28;20058;-81
2021/10/26 09:59:50;;;;;;;14.93;7.95;;;;;;;10.36;72.71;93884.53;4972221;28;20494;-80
2021/10/26 10:02:24;;;;;;;13.73;8.38;;;;;;;10.58;72.17;93878.53;4971873;28;20061;-81
2021/10/26 10:04:52;;;;;;;12.13;7.75;;;;;;;10.56;70.89;93843.53;4972064;28;20086;-81
2021/10/26 10:07:34;;;;;;;11.98;8.27;;;;;;;10.89;71.07;93872.09;4972311;28;20051;-81
2021/10/26 10:10:04;;;;;;;11.32;7.32;;;;;;;11.11;70.72;93877.06;4972003;28;20062;-81
2021/10/26 10:12:32;;;;;;;9.50;5.88;;;;;;;11.26;69.21;93867.41;4971783;28;20051;-80
2021/10/26 10:14:59;;;;;;;8.50;5.72;;;;;;;11.39;65.95;93861.44;4970618;28;20508;-81
2021/10/26 10:17:27;;;;;;;9.85;6.95;;;;;;;11.50;67.08;93873.72;4971760;28;20569;-81
2021/10/26 10:19:55;;;;;;;17.35;9.52;;;;;;;11.63;68.07;93867.78;4972068;28;20105;-81
2021/10/26 10:22:28;;;;;;;9.00;5.45;;;;;;;11.33;63.42;93851.94;4971936;28;20050;-81
2021/10/26 10:24:59;;;;;;;9.02;5.75;;;;;;;11.50;61.66;93854.94;4971742;28;20050;-81
2021/10/26 10:27:29;;;;;;;9.00;6.45;;;;;;;11.33;61.19;93857.91;4971433;28;20047;-81
2021/10/26 10:29:57;;;;;;;10.32;6.15;;;;;;;11.22;63.72;93851.56;4971441;28;20050;-81
2021/10/26 10:32:24;;;;;;;9.23;6.28;;;;;;;10.61;63.04;93847.31;4971460;28;20597;-81
2021/10/26 10:34:52;;;;;;;10.98;7.50;;;;;;;10.40;64.57;93843.84;4972031;28;20081;-80
2021/10/26 10:37:22;;;;;;;12.52;7.45;;;;;;;10.53;68.64;93832.88;4971387;28;20093;-80
2021/10/26 10:39:50;;;;;;;10.13;7.32;;;;;;;10.52;67.71;93814.09;4971565;28;20139;-81
2021/10/26 10:42:22;;;;;;;12.73;7.55;;;;;;;10.77;68.06;93817.91;4971518;28;20051;-81
2021/10/26 10:44:50;;;;;;;11.20;7.63;;;;;;;11.15;68.07;93819.13;4968480;28;20142;-82
2021/10/26 10:47:40;;;;;;;11.40;7.15;;;;;;;10.87;63.61;93815.75;4969526;28;20057;-81
2021/10/26 10:50:35;;;;;;;10.98;6.35;;;;;;;10.97;63.67;93807.63;4970761;28;20054;-81
2021/10/26 10:53:13;;;;;;;9.27;6.05;;;;;;;11.06;64.63;93803.13;4970238;28;20055;-81
2021/10/26 10:55:45;;;;;;;10.07;5.97;;;;;;;11.10;64.50;93794.00;4971081;28;20055;-80
2021/10/26 10:58:39;;;;;;;13.02;7.15;;;;;;;11.32;68.11;93781.72;4971318;28;20051;-80
2021/10/26 11:01:26;;;;;;;27.65;13.45;;;;;;;11.70;65.44;93790.56;4971140;28;20043;-80
2021/10/26 11:03:54;;;;;;;32.63;16.80;;;;;;;11.41;64.10;93789.22;4971000;28;20042;-81
2021/10/26 11:06:50;;;;;;;9.65;7.00;;;;;;;11.15;61.72;93786.47;4971255;28;20053;-81
2021/10/26 11:09:53;;;;;;;10.98;6.15;;;;;;;10.83;64.83;93756.22;4971242;28;20058;-80
2021/10/26 11:12:31;;;;;;;9.52;6.45;;;;;;;10.97;67.97;93751.09;4970987;28;20042;-81
2021/10/26 11:15:02;;;;;;;10.93;6.55;;;;;;;11.08;63.74;93762.56;4971313;28;20051;-81
2021/10/26 11:18:02;;;;;;;7.20;5.13;;;;;;;11.03;61.80;93765.75;4971165;28;20074;-81
2021/10/26 11:20:46;;;;;;;9.40;5.85;;;;;;;11.21;61.81;93764.34;4970964;28;20058;-82
2021/10/26 11:23:17;;;;;;;7.90;5.22;;;;;;;11.17;63.92;93724.56;4970966;28;20058;-82
2021/10/26 11:25:46;;;;;;;9.50;5.72;;;;;;;11.02;59.12;93717.09;4971058;28;20401;-82
2021/10/26 11:28:52;;;;;;;8.88;5.63;;;;;;;11.40;60.91;93756.78;4971001;28;20380;-82
2021/10/26 11:31:26;;;;;;;9.68;5.85;;;;;;;11.75;63.35;93743.63;4965682;28;20055;-82
2021/10/26 11:34:05;;;;;;;7.20;5.15;;;;;;;11.75;59.87;93710.16;4971171;28;20062;-82
2021/10/26 11:36:34;;;;;;;7.90;5.20;;;;;;;11.94;57.97;93734.25;4970512;28;20529;-83
2021/10/26 11:39:17;;;;;;;14.20;8.50;;;;;;;11.62;58.44;93711.03;4970621;28;20170;-82